Cheboygan, Michigan
Current Conditions -  °F | °C
As of 10:36 AM on Saturday 25 Oct 2014 (Local Time) from KSLH Reporting Station
Clear Clear  
Wind Chill: 59°   Ceiling: Unl
Heat Index: 59°   Visibility: 10mi
Dew Point: 45°   Wind: 13mph
Humidity: 59%   Direction: 270°W
Pressure: 29.67"   Gusts: 18mph
Location:  45.65°N, 84.47°W
Report Text: KSLH 251436Z AUTO 27011G16KT 10SM CLR 15/07 A2967 RMK AO2 T01490070
Loading
Personal Weather Stations






























Interactive Weather Map
Tropical Storm Tracking
New forecast layout! Learn more

10-Day Weather Forecast

Advertisements
Track Severe Weather on mobile